sensor_id;sensor_type;location;lat;lon;timestamp;pressure;altitude;pressure_sealevel;temperature;humidity
43701;BME280;58809;47.984;7.964;2023-12-07T00:01:27;97503.19;;;16.46;60.42
43701;BME280;58809;47.984;7.964;2023-12-07T00:04:29;97493.31;;;16.46;60.16
43701;BME280;58809;47.984;7.964;2023-12-07T00:10:40;97498.44;;;16.48;60.21
43701;BME280;58809;47.984;7.964;2023-12-07T00:13:42;97495.75;;;16.48;60.24
43701;BME280;58809;47.984;7.964;2023-12-07T00:16:43;97496.59;;;16.48;60.15
43701;BME280;58809;47.984;7.964;2023-12-07T00:19:45;97493.69;;;16.50;59.97
43701;BME280;58809;47.984;7.964;2023-12-07T00:22:46;97503.56;;;16.49;60.12
43701;BME280;58809;47.984;7.964;2023-12-07T00:25:48;97488.81;;;16.47;60.04
43701;BME280;58809;47.984;7.964;2023-12-07T00:28:50;97491.69;;;16.45;60.20
43701;BME280;58809;47.984;7.964;2023-12-07T00:31:52;97496.19;;;16.45;59.99
43701;BME280;58809;47.984;7.964;2023-12-07T00:34:53;97497.63;;;16.47;60.06
43701;BME280;58809;47.984;7.964;2023-12-07T00:37:56;97496.59;;;16.48;60.19
43701;BME280;58809;47.984;7.964;2023-12-07T00:40:57;97502.16;;;16.47;59.84
43701;BME280;58809;47.984;7.964;2023-12-07T00:43:59;97507.50;;;16.47;60.33
43701;BME280;58809;47.984;7.964;2023-12-07T00:47:00;97499.50;;;16.47;59.99
43701;BME280;58809;47.984;7.964;2023-12-07T00:50:02;97498.84;;;16.45;60.00
43701;BME280;58809;47.984;7.964;2023-12-07T00:53:03;97503.19;;;16.46;60.05
43701;BME280;58809;47.984;7.964;2023-12-07T00:56:06;97504.84;;;16.47;60.09
43701;BME280;58809;47.984;7.964;2023-12-07T00:59:08;97502.38;;;16.45;59.84
43701;BME280;58809;47.984;7.964;2023-12-07T01:02:09;97513.06;;;16.45;59.96
43701;BME280;58809;47.984;7.964;2023-12-07T01:05:11;97504.19;;;16.45;59.95
43701;BME280;58809;47.984;7.964;2023-12-07T01:08:13;97504.00;;;16.46;60.07
43701;BME280;58809;47.984;7.964;2023-12-07T01:11:14;97498.84;;;16.45;59.91
43701;BME280;58809;47.984;7.964;2023-12-07T01:14:16;97500.91;;;16.43;60.10
43701;BME280;58809;47.984;7.964;2023-12-07T01:17:18;97502.56;;;16.44;59.92
43701;BME280;58809;47.984;7.964;2023-12-07T01:20:20;97513.25;;;16.44;59.75
43701;BME280;58809;47.984;7.964;2023-12-07T01:23:21;97509.97;;;16.42;60.06
43701;BME280;58809;47.984;7.964;2023-12-07T01:26:23;97516.72;;;16.44;59.96
43701;BME280;58809;47.984;7.964;2023-12-07T01:29:24;97524.97;;;16.43;59.83
43701;BME280;58809;47.984;7.964;2023-12-07T01:32:26;97530.28;;;16.43;59.94
43701;BME280;58809;47.984;7.964;2023-12-07T01:35:28;97525.81;;;16.43;59.99
43701;BME280;58809;47.984;7.964;2023-12-07T01:38:30;97522.88;;;16.45;59.66
43701;BME280;58809;47.984;7.964;2023-12-07T01:41:31;97524.53;;;16.46;59.70
43701;BME280;58809;47.984;7.964;2023-12-07T01:44:33;97523.13;;;16.43;59.83
43701;BME280;58809;47.984;7.964;2023-12-07T01:47:35;97518.59;;;16.44;59.86
43701;BME280;58809;47.984;7.964;2023-12-07T01:50:37;97518.59;;;16.44;59.94
43701;BME280;58809;47.984;7.964;2023-12-07T01:53:39;97515.13;;;16.43;60.11
43701;BME280;58809;47.984;7.964;2023-12-07T01:56:42;97515.94;;;16.44;59.76
43701;BME280;58809;47.984;7.964;2023-12-07T01:59:43;97513.47;;;16.42;59.62
43701;BME280;58809;47.984;7.964;2023-12-07T02:02:46;97508.31;;;16.41;59.80
43701;BME280;58809;47.984;7.964;2023-12-07T02:05:48;97513.88;;;16.39;59.66
43701;BME280;58809;47.984;7.964;2023-12-07T02:08:50;97508.13;;;16.42;59.88
43701;BME280;58809;47.984;7.964;2023-12-07T02:11:52;97515.13;;;16.43;59.63
